sensor_id;sensor_type;location;lat;lon;timestamp;pressure;altitude;pressure_sealevel;temperature;humidity
76753;BME280;65687;51.308;16.916;2023-04-01T00:02:26;97851.38;;;7.81;82.43
76753;BME280;65687;51.308;16.916;2023-04-01T00:07:28;97857.92;;;7.80;82.38
76753;BME280;65687;51.308;16.916;2023-04-01T00:12:29;97854.73;;;7.77;82.02
76753;BME280;65687;51.308;16.916;2023-04-01T00:17:31;97850.91;;;7.74;82.25
76753;BME280;65687;51.308;16.916;2023-04-01T00:22:32;97851.93;;;7.70;82.35
76753;BME280;65687;51.308;16.916;2023-04-01T00:27:35;97853.93;;;7.66;82.49
76753;BME280;65687;51.308;16.916;2023-04-01T00:32:37;97853.48;;;7.60;82.70
76753;BME280;65687;51.308;16.916;2023-04-01T00:37:39;97852.20;;;7.57;83.14
76753;BME280;65687;51.308;16.916;2023-04-01T00:42:40;97858.19;;;7.56;83.10
76753;BME280;65687;51.308;16.916;2023-04-01T00:47:42;97858.02;;;7.56;83.29
76753;BME280;65687;51.308;16.916;2023-04-01T00:52:43;97850.02;;;7.57;83.35
76753;BME280;65687;51.308;16.916;2023-04-01T00:57:45;97851.27;;;7.59;83.43
76753;BME280;65687;51.308;16.916;2023-04-01T01:02:50;97856.84;;;7.63;83.47
76753;BME280;65687;51.308;16.916;2023-04-01T01:08:06;97858.84;;;7.67;83.41
76753;BME280;65687;51.308;16.916;2023-04-01T01:19:26;97852.99;;;7.76;83.88
76753;BME280;65687;51.308;16.916;2023-04-01T01:24:55;97844.92;;;7.79;84.19
76753;BME280;65687;51.308;16.916;2023-04-01T01:30:25;97849.32;;;7.84;84.23
76753;BME280;65687;51.308;16.916;2023-04-01T01:35:41;97845.97;;;7.87;85.16
76753;BME280;65687;51.308;16.916;2023-04-01T01:40:48;97840.27;;;7.92;85.09
76753;BME280;65687;51.308;16.916;2023-04-01T01:45:58;97843.23;;;7.98;85.08
76753;BME280;65687;51.308;16.916;2023-04-01T01:51:03;97842.50;;;8.01;85.11
76753;BME280;65687;51.308;16.916;2023-04-01T01:56:06;97839.11;;;8.04;85.30
76753;BME280;65687;51.308;16.916;2023-04-01T02:01:17;97841.29;;;8.07;85.16
76753;BME280;65687;51.308;16.916;2023-04-01T02:06:23;97840.86;;;8.09;85.14
76753;BME280;65687;51.308;16.916;2023-04-01T02:11:32;97839.48;;;8.13;85.21
76753;BME280;65687;51.308;16.916;2023-04-01T02:16:40;97839.01;;;8.17;85.19
76753;BME280;65687;51.308;16.916;2023-04-01T02:21:45;97831.95;;;8.22;85.23
76753;BME280;65687;51.308;16.916;2023-04-01T02:26:47;97824.34;;;8.25;84.97
76753;BME280;65687;51.308;16.916;2023-04-01T02:31:50;97828.73;;;8.29;84.84
76753;BME280;65687;51.308;16.916;2023-04-01T02:36:52;97829.35;;;8.35;84.87
76753;BME280;65687;51.308;16.916;2023-04-01T02:41:55;97832.03;;;8.35;84.74
76753;BME280;65687;51.308;16.916;2023-04-01T02:46:57;97831.81;;;8.33;84.86
76753;BME280;65687;51.308;16.916;2023-04-01T02:51:58;97832.24;;;8.32;84.84
76753;BME280;65687;51.308;16.916;2023-04-01T02:57:00;97838.14;;;8.29;84.99
76753;BME280;65687;51.308;16.916;2023-04-01T03:02:01;97841.93;;;8.27;84.81
76753;BME280;65687;51.308;16.916;2023-04-01T03:07:03;97844.91;;;8.26;84.88
76753;BME280;65687;51.308;16.916;2023-04-01T03:12:05;97845.02;;;8.28;84.91
76753;BME280;65687;51.308;16.916;2023-04-01T03:17:07;97846.81;;;8.27;84.87
76753;BME280;65687;51.308;16.916;2023-04-01T03:22:10;97847.69;;;8.24;85.06
76753;BME280;65687;51.308;16.916;2023-04-01T03:27:12;97850.21;;;8.24;84.94
76753;BME280;65687;51.308;16.916;2023-04-01T03:32:14;97850.58;;;8.25;85.24
76753;BME280;65687;51.308;16.916;2023-04-01T03:37:15;97849.36;;;8.20;85.28
76753;BME280;65687;51.308;16.916;2023-04-01T03:42:17;97851.45;;;8.18;85.38
76753;BME280;65687;51.308;16.916;2023-04-01T03:47:18;97852.98;;;8.14;85.38
76753;BME280;65687;51.308;16.916;2023-04-01T03:52:20;97851.83;;;8.10;85.61
76753;BME280;65687;51.308;16.916;2023-04-01T03:57:22;97855.65;;;8.09;85.63
76753;BME280;65687;51.308;16.916;2023-04-01T04:02:24;97856.62;;;8.08;85.73
76753;BME280;65687;51.308;16.916;2023-04-01T04:07:26;97858.70;;;8.09;85.88
76753;BME280;65687;51.308;16.916;2023-04-01T04:12:27;97861.86;;;8.09;85.88
76753;BME280;65687;51.308;16.916;2023-04-01T04:17:28;97863.05;;;8.09;86.04
76753;BME280;65687;51.308;16.916;2023-04-01T04:22:30;97866.98;;;8.11;86.00
76753;BME280;65687;51.308;16.916;2023-04-01T04:27:32;97868.02;;;8.11;86.14
76753;BME280;65687;51.308;16.916;2023-04-01T04:32:34;97867.95;;;8.10;86.41
76753;BME280;65687;51.308;16.916;2023-04-01T04:37:36;97872.88;;;8.07;86.51
76753;BME280;65687;51.308;16.916;2023-04-01T04:42:37;97878.00;;;8.05;86.38
76753;BME280;65687;51.308;16.916;2023-04-01T04:47:39;97875.96;;;8.09;86.63
76753;BME280;65687;51.308;16.916;2023-04-01T04:52:40;97873.13;;;8.13;86.68
76753;BME280;65687;51.308;16.916;2023-04-01T04:57:42;97871.77;;;8.21;86.61
76753;BME280;65687;51.308;16.916;2023-04-01T05:02:43;97872.38;;;8.24;86.39
76753;BME280;65687;51.308;16.916;2023-04-01T05:07:45;97879.52;;;8.25;86.76
76753;BME280;65687;51.308;16.916;2023-04-01T05:12:46;97877.67;;;8.25;86.48
76753;BME280;65687;51.308;16.916;2023-04-01T05:17:48;97882.48;;;8.31;86.36
76753;BME280;65687;51.308;16.916;2023-04-01T05:22:56;97886.92;;;8.36;86.22
76753;BME280;65687;51.308;16.916;2023-04-01T05:27:57;97890.94;;;8.44;86.21
76753;BME280;65687;51.308;16.916;2023-04-01T05:32:59;97889.48;;;8.41;86.40
76753;BME280;65687;51.308;16.916;2023-04-01T05:38:00;97891.50;;;8.37;86.54
76753;BME280;65687;51.308;16.916;2023-04-01T05:43:02;97896.41;;;8.42;86.33
76753;BME280;65687;51.308;16.916;2023-04-01T05:48:04;97896.01;;;8.40;86.48
76753;BME280;65687;51.308;16.916;2023-04-01T05:53:06;97894.66;;;8.36;86.73
76753;BME280;65687;51.308;16.916;2023-04-01T05:58:07;97897.08;;;8.38;86.65
76753;BME280;65687;51.308;16.916;2023-04-01T06:03:09;97894.29;;;8.40;86.66
76753;BME280;65687;51.308;16.916;2023-04-01T06:08:13;97896.23;;;8.41;86.60
76753;BME280;65687;51.308;16.916;2023-04-01T06:24:40;97908.45;;;8.44;86.87
76753;BME280;65687;51.308;16.916;2023-04-01T06:40:48;97919.70;;;8.48;87.06
76753;BME280;65687;51.308;16.916;2023-04-01T06:46:02;97922.30;;;8.49;87.04
76753;BME280;65687;51.308;16.916;2023-04-01T06:56:37;97921.58;;;8.48;87.48
76753;BME280;65687;51.308;16.916;2023-04-01T07:01:45;97925.57;;;8.47;87.38
76753;BME280;65687;51.308;16.916;2023-04-01T07:06:58;97929.80;;;8.47;87.57
76753;BME280;65687;51.308;16.916;2023-04-01T07:12:09;97930.17;;;8.48;87.67
76753;BME280;65687;51.308;16.916;2023-04-01T07:17:16;97931.22;;;8.49;87.57
76753;BME280;65687;51.308;16.916;2023-04-01T07:22:45;97930.41;;;8.50;87.60
76753;BME280;65687;51.308;16.916;2023-04-01T07:27:47;97937.52;;;8.51;87.69
76753;BME280;65687;51.308;16.916;2023-04-01T07:32:56;97940.81;;;8.54;87.67
76753;BME280;65687;51.308;16.916;2023-04-01T07:38:12;97943.16;;;8.53;87.85
76753;BME280;65687;51.308;16.916;2023-04-01T07:48:58;97944.24;;;8.63;87.81
76753;BME280;65687;51.308;16.916;2023-04-01T07:54:15;97945.27;;;8.71;87.65
76753;BME280;65687;51.308;16.916;2023-04-01T08:04:42;97954.60;;;8.81;87.45
76753;BME280;65687;51.308;16.916;2023-04-01T08:26:05;97975.90;;;8.95;87.10
76753;BME280;65687;51.308;16.916;2023-04-01T08:31:20;97982.79;;;8.95;87.12
76753;BME280;65687;51.308;16.916;2023-04-01T08:36:34;97982.52;;;8.97;87.58
76753;BME280;65687;51.308;16.916;2023-04-01T08:53:09;97994.14;;;9.01;87.48
76753;BME280;65687;51.308;16.916;2023-04-01T08:58:32;97996.02;;;9.01;87.43
76753;BME280;65687;51.308;16.916;2023-04-01T09:03:49;98000.50;;;9.08;87.22
76753;BME280;65687;51.308;16.916;2023-04-01T09:09:27;98002.75;;;9.17;86.97
76753;BME280;65687;51.308;16.916;2023-04-01T09:35:49;98029.60;;;9.36;86.73
76753;BME280;65687;51.308;16.916;2023-04-01T09:40:58;98033.03;;;9.41;86.87
76753;BME280;65687;51.308;16.916;2023-04-01T10:02:34;98041.35;;;9.51;86.49
76753;BME280;65687;51.308;16.916;2023-04-01T10:18:36;98051.70;;;9.57;86.96
76753;BME280;65687;51.308;16.916;2023-04-01T10:40:21;98058.83;;;9.88;86.74
76753;BME280;65687;51.308;16.916;2023-04-01T10:50:56;98060.29;;;10.09;86.79
76753;BME280;65687;51.308;16.916;2023-04-01T11:13:01;98067.55;;;10.17;86.42
76753;BME280;65687;51.308;16.916;2023-04-01T11:28:58;98076.60;;;10.12;86.06
76753;BME280;65687;51.308;16.916;2023-04-01T11:45:32;98088.35;;;10.23;85.78
76753;BME280;65687;51.308;16.916;2023-04-01T11:50:51;98091.31;;;10.20;85.66
76753;BME280;65687;51.308;16.916;2023-04-01T12:01:27;98096.33;;;10.24;86.00
76753;BME280;65687;51.308;16.916;2023-04-01T12:23:08;98100.58;;;10.37;85.89
76753;BME280;65687;51.308;16.916;2023-04-01T12:28:25;98103.33;;;10.43;85.70
76753;BME280;65687;51.308;16.916;2023-04-01T12:33:44;98108.16;;;10.51;85.62
76753;BME280;65687;51.308;16.916;2023-04-01T13:00:52;98106.44;;;10.82;85.87
76753;BME280;65687;51.308;16.916;2023-04-01T13:06:01;98106.34;;;11.07;86.00
76753;BME280;65687;51.308;16.916;2023-04-01T13:11:28;98113.52;;;11.30;85.54
76753;BME280;65687;51.308;16.916;2023-04-01T13:16:38;98119.98;;;11.26;84.68
76753;BME280;65687;51.308;16.916;2023-04-01T13:27:37;98140.55;;;11.14;84.65
76753;BME280;65687;51.308;16.916;2023-04-01T13:32:47;98147.80;;;11.14;84.68
76753;BME280;65687;51.308;16.916;2023-04-01T13:38:16;98150.80;;;11.13;84.11
76753;BME280;65687;51.308;16.916;2023-04-01T13:59:48;98158.73;;;11.12;83.52
76753;BME280;65687;51.308;16.916;2023-04-01T14:26:22;98189.11;;;11.07;83.28
76753;BME280;65687;51.308;16.916;2023-04-01T14:47:48;98216.81;;;10.54;83.15
76753;BME280;65687;51.308;16.916;2023-04-01T14:58:46;98233.73;;;10.14;83.79
76753;BME280;65687;51.308;16.916;2023-04-01T15:14:35;98232.32;;;9.87;84.97
76753;BME280;65687;51.308;16.916;2023-04-01T15:25:16;98234.50;;;9.87;85.14
76753;BME280;65687;51.308;16.916;2023-04-01T15:30:33;98237.60;;;9.89;85.29
76753;BME280;65687;51.308;16.916;2023-04-01T15:36:10;98237.34;;;9.87;85.32
76753;BME280;65687;51.308;16.916;2023-04-01T15:41:20;98240.83;;;9.85;85.44
76753;BME280;65687;51.308;16.916;2023-04-01T15:46:41;98245.71;;;9.85;85.34
76753;BME280;65687;51.308;16.916;2023-04-01T16:08:00;98270.29;;;9.88;85.99
76753;BME280;65687;51.308;16.916;2023-04-01T16:13:45;98280.65;;;9.90;85.83
76753;BME280;65687;51.308;16.916;2023-04-01T16:23:50;98289.33;;;9.84;85.65
76753;BME280;65687;51.308;16.916;2023-04-01T16:29:18;98292.98;;;9.78;85.53
76753;BME280;65687;51.308;16.916;2023-04-01T16:34:21;98297.91;;;9.80;85.65
76753;BME280;65687;51.308;16.916;2023-04-01T16:40:02;98302.98;;;9.76;85.84
76753;BME280;65687;51.308;16.916;2023-04-01T16:45:53;98312.81;;;9.78;85.96
76753;BME280;65687;51.308;16.916;2023-04-01T16:51:13;98325.31;;;9.71;86.10
76753;BME280;65687;51.308;16.916;2023-04-01T17:01:26;98337.52;;;9.49;86.09
76753;BME280;65687;51.308;16.916;2023-04-01T17:06:33;98344.23;;;9.34;86.23
76753;BME280;65687;51.308;16.916;2023-04-01T17:17:06;98364.67;;;9.13;86.33
76753;BME280;65687;51.308;16.916;2023-04-01T17:22:24;98377.13;;;9.06;86.37
76753;BME280;65687;51.308;16.916;2023-04-01T17:27:57;98384.10;;;8.96;86.63
76753;BME280;65687;51.308;16.916;2023-04-01T17:43:32;98406.52;;;8.72;86.41
76753;BME280;65687;51.308;16.916;2023-04-01T17:48:49;98415.39;;;8.65;86.55
76753;BME280;65687;51.308;16.916;2023-04-01T17:54:20;98427.34;;;8.62;86.22
76753;BME280;65687;51.308;16.916;2023-04-01T18:00:33;98435.46;;;8.56;86.37
76753;BME280;65687;51.308;16.916;2023-04-01T18:05:48;98444.66;;;8.51;86.69
76753;BME280;65687;51.308;16.916;2023-04-01T18:16:18;98454.13;;;8.42;86.17
76753;BME280;65687;51.308;16.916;2023-04-01T18:26:37;98463.75;;;8.27;86.01
76753;BME280;65687;51.308;16.916;2023-04-01T18:31:49;98465.64;;;8.22;86.13
76753;BME280;65687;51.308;16.916;2023-04-01T18:37:00;98475.69;;;8.18;86.07
76753;BME280;65687;51.308;16.916;2023-04-01T18:53:35;98496.55;;;8.02;86.27
76753;BME280;65687;51.308;16.916;2023-04-01T18:59:00;98506.46;;;7.98;86.23
76753;BME280;65687;51.308;16.916;2023-04-01T19:04:15;98512.81;;;7.95;86.31
76753;BME280;65687;51.308;16.916;2023-04-01T19:09:42;98520.09;;;7.95;86.34
76753;BME280;65687;51.308;16.916;2023-04-01T19:20:20;98534.95;;;8.00;86.04
76753;BME280;65687;51.308;16.916;2023-04-01T19:25:35;98542.94;;;7.98;86.06
76753;BME280;65687;51.308;16.916;2023-04-01T19:41:52;98556.73;;;7.89;86.04
76753;BME280;65687;51.308;16.916;2023-04-01T19:52:29;98569.67;;;7.80;86.40
76753;BME280;65687;51.308;16.916;2023-04-01T20:34:35;98612.61;;;7.49;86.60
76753;BME280;65687;51.308;16.916;2023-04-01T21:11:43;98651.55;;;7.22;86.51
76753;BME280;65687;51.308;16.916;2023-04-01T21:17:17;98656.08;;;7.22;86.41
76753;BME280;65687;51.308;16.916;2023-04-01T21:22:28;98661.48;;;7.14;86.54
76753;BME280;65687;51.308;16.916;2023-04-01T21:49:43;98695.58;;;6.95;86.77
76753;BME280;65687;51.308;16.916;2023-04-01T21:55:44;98695.00;;;6.91;86.88
76753;BME280;65687;51.308;16.916;2023-04-01T22:00:42;98697.48;;;6.82;86.90
76753;BME280;65687;51.308;16.916;2023-04-01T22:10:56;98710.33;;;6.67;86.68
76753;BME280;65687;51.308;16.916;2023-04-01T22:16:22;98716.56;;;6.65;86.70
76753;BME280;65687;51.308;16.916;2023-04-01T22:21:58;98717.41;;;6.57;86.77
76753;BME280;65687;51.308;16.916;2023-04-01T22:32:47;98738.37;;;6.43;86.75
76753;BME280;65687;51.308;16.916;2023-04-01T22:43:02;98749.13;;;6.15;85.77
76753;BME280;65687;51.308;16.916;2023-04-01T22:48:16;98754.81;;;6.05;86.04
76753;BME280;65687;51.308;16.916;2023-04-01T22:53:46;98756.17;;;5.95;85.95
76753;BME280;65687;51.308;16.916;2023-04-01T22:59:00;98757.80;;;5.84;85.95
76753;BME280;65687;51.308;16.916;2023-04-01T23:04:04;98766.25;;;5.80;86.03
76753;BME280;65687;51.308;16.916;2023-04-01T23:19:44;98793.00;;;5.65;86.02
76753;BME280;65687;51.308;16.916;2023-04-01T23:36:30;98819.88;;;5.46;86.03
76753;BME280;65687;51.308;16.916;2023-04-01T23:41:29;98820.45;;;5.35;85.79
76753;BME280;65687;51.308;16.916;2023-04-01T23:46:33;98824.13;;;5.25;85.89
76753;BME280;65687;51.308;16.916;2023-04-01T23:51:38;98829.36;;;5.19;86.00
76753;BME280;65687;51.308;16.916;2023-04-01T23:56:45;98840.44;;;5.14;86.04
